sensor_id;sensor_type;location;lat;lon;timestamp;P1;durP1;ratioP1;P2;durP2;ratioP2
45909;SDS011;31622;55.416;37.840;2023-11-18T00:01:26;1.58;;;1.00;;
45909;SDS011;31622;55.416;37.840;2023-11-18T00:03:56;2.70;;;1.20;;
45909;SDS011;31622;55.416;37.840;2023-11-18T00:06:22;2.13;;;1.10;;
45909;SDS011;31622;55.416;37.840;2023-11-18T00:08:47;2.10;;;1.30;;
45909;SDS011;31622;55.416;37.840;2023-11-18T00:11:13;1.85;;;1.00;;
45909;SDS011;31622;55.416;37.840;2023-11-18T00:13:39;2.10;;;1.33;;
45909;SDS011;31622;55.416;37.840;2023-11-18T00:16:05;2.33;;;1.20;;
45909;SDS011;31622;55.416;37.840;2023-11-18T00:18:31;1.88;;;1.10;;
45909;SDS011;31622;55.416;37.840;2023-11-18T00:20:58;2.10;;;1.20;;
45909;SDS011;31622;55.416;37.840;2023-11-18T00:23:24;2.35;;;1.30;;
45909;SDS011;31622;55.416;37.840;2023-11-18T00:25:52;1.85;;;1.00;;
45909;SDS011;31622;55.416;37.840;2023-11-18T00:28:18;1.63;;;1.15;;
45909;SDS011;31622;55.416;37.840;2023-11-18T00:30:44;2.42;;;1.20;;
45909;SDS011;31622;55.416;37.840;2023-11-18T00:33:10;2.22;;;1.15;;
45909;SDS011;31622;55.416;37.840;2023-11-18T00:35:36;1.90;;;1.00;;
45909;SDS011;31622;55.416;37.840;2023-11-18T00:38:02;2.30;;;1.30;;
45909;SDS011;31622;55.416;37.840;2023-11-18T00:40:28;2.20;;;1.20;;
45909;SDS011;31622;55.416;37.840;2023-11-18T00:42:57;2.10;;;1.05;;
45909;SDS011;31622;55.416;37.840;2023-11-18T00:45:22;2.55;;;1.50;;
45909;SDS011;31622;55.416;37.840;2023-11-18T00:47:49;2.20;;;1.10;;
45909;SDS011;31622;55.416;37.840;2023-11-18T00:50:15;1.75;;;1.10;;
45909;SDS011;31622;55.416;37.840;2023-11-18T00:52:41;2.33;;;1.20;;
45909;SDS011;31622;55.416;37.840;2023-11-18T00:55:07;1.80;;;1.10;;
45909;SDS011;31622;55.416;37.840;2023-11-18T00:57:35;2.10;;;1.20;;
45909;SDS011;31622;55.416;37.840;2023-11-18T01:00:01;2.38;;;1.05;;
45909;SDS011;31622;55.416;37.840;2023-11-18T01:02:27;2.35;;;1.23;;
45909;SDS011;31622;55.416;37.840;2023-11-18T01:04:53;2.53;;;1.30;;
45909;SDS011;31622;55.416;37.840;2023-11-18T01:07:19;1.88;;;1.13;;
45909;SDS011;31622;55.416;37.840;2023-11-18T01:09:45;3.30;;;1.40;;
45909;SDS011;31622;55.416;37.840;2023-11-18T01:12:10;2.35;;;1.25;;
45909;SDS011;31622;55.416;37.840;2023-11-18T01:14:39;2.78;;;1.20;;
45909;SDS011;31622;55.416;37.840;2023-11-18T01:17:06;3.15;;;1.38;;
45909;SDS011;31622;55.416;37.840;2023-11-18T01:19:32;2.17;;;1.20;;
45909;SDS011;31622;55.416;37.840;2023-11-18T01:21:59;2.28;;;1.30;;
45909;SDS011;31622;55.416;37.840;2023-11-18T01:24:25;2.95;;;1.20;;
45909;SDS011;31622;55.416;37.840;2023-11-18T01:26:51;2.65;;;1.52;;
45909;SDS011;31622;55.416;37.840;2023-11-18T01:29:17;1.77;;;1.20;;
45909;SDS011;31622;55.416;37.840;2023-11-18T01:31:42;2.10;;;1.20;;
45909;SDS011;31622;55.416;37.840;2023-11-18T01:34:09;2.03;;;1.20;;
45909;SDS011;31622;55.416;37.840;2023-11-18T01:36:35;2.60;;;1.15;;
45909;SDS011;31622;55.416;37.840;2023-11-18T01:39:00;2.70;;;1.50;;
45909;SDS011;31622;55.416;37.840;2023-11-18T01:41:26;2.40;;;1.48;;
45909;SDS011;31622;55.416;37.840;2023-11-18T01:43:52;2.28;;;1.33;;
45909;SDS011;31622;55.416;37.840;2023-11-18T01:46:18;2.25;;;1.40;;
45909;SDS011;31622;55.416;37.840;2023-11-18T01:48:45;2.38;;;1.20;;
45909;SDS011;31622;55.416;37.840;2023-11-18T01:51:11;2.17;;;1.27;;
45909;SDS011;31622;55.416;37.840;2023-11-18T01:53:37;2.15;;;1.42;;
45909;SDS011;31622;55.416;37.840;2023-11-18T01:56:05;2.28;;;1.25;;
45909;SDS011;31622;55.416;37.840;2023-11-18T01:58:34;2.17;;;1.27;;
45909;SDS011;31622;55.416;37.840;2023-11-18T02:01:04;2.42;;;1.30;;
45909;SDS011;31622;55.416;37.840;2023-11-18T02:03:34;2.13;;;1.20;;
45909;SDS011;31622;55.416;37.840;2023-11-18T02:06:01;2.42;;;1.20;;
45909;SDS011;31622;55.416;37.840;2023-11-18T02:08:30;2.13;;;1.10;;
45909;SDS011;31622;55.416;37.840;2023-11-18T02:11:39;2.80;;;1.50;;
45909;SDS011;31622;55.416;37.840;2023-11-18T02:13:50;1.92;;;1.10;;
45909;SDS011;31622;55.416;37.840;2023-11-18T02:16:18;2.75;;;1.50;;
45909;SDS011;31622;55.416;37.840;2023-11-18T02:18:45;2.08;;;1.33;;
45909;SDS011;31622;55.416;37.840;2023-11-18T02:21:12;2.42;;;1.38;;
45909;SDS011;31622;55.416;37.840;2023-11-18T02:23:40;2.08;;;1.20;;
45909;SDS011;31622;55.416;37.840;2023-11-18T02:26:08;2.17;;;1.40;;
45909;SDS011;31622;55.416;37.840;2023-11-18T02:28:34;1.80;;;1.30;;
45909;SDS011;31622;55.416;37.840;2023-11-18T02:31:03;2.03;;;1.25;;
45909;SDS011;31622;55.416;37.840;2023-11-18T02:33:40;2.10;;;1.40;;
45909;SDS011;31622;55.416;37.840;2023-11-18T02:38:39;3.05;;;1.52;;
45909;SDS011;31622;55.416;37.840;2023-11-18T02:41:09;2.05;;;1.40;;
45909;SDS011;31622;55.416;37.840;2023-11-18T02:43:37;2.88;;;1.38;;
45909;SDS011;31622;55.416;37.840;2023-11-18T02:46:05;3.33;;;1.60;;
45909;SDS011;31622;55.416;37.840;2023-11-18T02:48:32;4.00;;;1.90;;
45909;SDS011;31622;55.416;37.840;2023-11-18T02:50:58;3.00;;;1.63;;
45909;SDS011;31622;55.416;37.840;2023-11-18T02:53:24;3.22;;;1.40;;
45909;SDS011;31622;55.416;37.840;2023-11-18T02:55:51;5.18;;;1.75;;
45909;SDS011;31622;55.416;37.840;2023-11-18T02:58:28;2.45;;;1.38;;
45909;SDS011;31622;55.416;37.840;2023-11-18T03:00:55;3.47;;;1.60;;
45909;SDS011;31622;55.416;37.840;2023-11-18T03:03:20;3.42;;;1.40;;
45909;SDS011;31622;55.416;37.840;2023-11-18T03:05:46;2.85;;;1.65;;
45909;SDS011;31622;55.416;37.840;2023-11-18T03:08:15;5.57;;;1.90;;
45909;SDS011;31622;55.416;37.840;2023-11-18T03:10:41;2.70;;;1.60;;
45909;SDS011;31622;55.416;37.840;2023-11-18T03:13:09;3.13;;;1.60;;
45909;SDS011;31622;55.416;37.840;2023-11-18T03:15:35;3.10;;;1.70;;
45909;SDS011;31622;55.416;37.840;2023-11-18T03:18:01;2.78;;;1.83;;
45909;SDS011;31622;55.416;37.840;2023-11-18T03:20:27;3.67;;;1.40;;
45909;SDS011;31622;55.416;37.840;2023-11-18T03:22:54;2.75;;;1.67;;
45909;SDS011;31622;55.416;37.840;2023-11-18T03:25:20;3.72;;;1.48;;
45909;SDS011;31622;55.416;37.840;2023-11-18T03:27:47;4.53;;;2.00;;
45909;SDS011;31622;55.416;37.840;2023-11-18T03:30:13;3.58;;;1.55;;
45909;SDS011;31622;55.416;37.840;2023-11-18T03:32:39;3.53;;;1.80;;
45909;SDS011;31622;55.416;37.840;2023-11-18T03:35:07;3.65;;;2.08;;
45909;SDS011;31622;55.416;37.840;2023-11-18T03:37:34;3.28;;;1.85;;
45909;SDS011;31622;55.416;37.840;2023-11-18T03:40:01;2.75;;;1.40;;
45909;SDS011;31622;55.416;37.840;2023-11-18T03:42:27;2.90;;;1.58;;
45909;SDS011;31622;55.416;37.840;2023-11-18T03:44:54;3.63;;;1.85;;
45909;SDS011;31622;55.416;37.840;2023-11-18T03:47:20;4.03;;;1.60;;
45909;SDS011;31622;55.416;37.840;2023-11-18T03:49:49;3.67;;;1.88;;
45909;SDS011;31622;55.416;37.840;2023-11-18T03:52:16;3.00;;;1.55;;
45909;SDS011;31622;55.416;37.840;2023-11-18T03:54:41;3.75;;;2.03;;
45909;SDS011;31622;55.416;37.840;2023-11-18T03:57:07;3.63;;;1.88;;
45909;SDS011;31622;55.416;37.840;2023-11-18T03:59:33;3.28;;;2.00;;
45909;SDS011;31622;55.416;37.840;2023-11-18T04:01:59;3.70;;;2.00;;
45909;SDS011;31622;55.416;37.840;2023-11-18T04:04:25;3.08;;;1.65;;
45909;SDS011;31622;55.416;37.840;2023-11-18T04:06:51;4.13;;;2.08;;
45909;SDS011;31622;55.416;37.840;2023-11-18T04:09:16;3.60;;;1.80;;
45909;SDS011;31622;55.416;37.840;2023-11-18T04:11:42;4.00;;;1.98;;
45909;SDS011;31622;55.416;37.840;2023-11-18T04:14:10;4.32;;;2.05;;
45909;SDS011;31622;55.416;37.840;2023-11-18T04:16:36;3.22;;;2.10;;
45909;SDS011;31622;55.416;37.840;2023-11-18T04:19:03;3.67;;;2.10;;
45909;SDS011;31622;55.416;37.840;2023-11-18T04:21:29;2.90;;;2.00;;
45909;SDS011;31622;55.416;37.840;2023-11-18T04:23:55;3.83;;;2.28;;
45909;SDS011;31622;55.416;37.840;2023-11-18T04:26:21;2.75;;;1.80;;
45909;SDS011;31622;55.416;37.840;2023-11-18T04:28:46;2.70;;;1.80;;
45909;SDS011;31622;55.416;37.840;2023-11-18T04:31:12;2.92;;;1.85;;
45909;SDS011;31622;55.416;37.840;2023-11-18T04:33:38;3.10;;;1.67;;
45909;SDS011;31622;55.416;37.840;2023-11-18T04:36:06;4.65;;;2.05;;
45909;SDS011;31622;55.416;37.840;2023-11-18T04:38:35;3.65;;;1.90;;
45909;SDS011;31622;55.416;37.840;2023-11-18T04:41:01;3.85;;;2.15;;
45909;SDS011;31622;55.416;37.840;2023-11-18T04:43:31;3.08;;;1.73;;
45909;SDS011;31622;55.416;37.840;2023-11-18T04:45:58;2.88;;;1.80;;
45909;SDS011;31622;55.416;37.840;2023-11-18T04:48:24;2.67;;;1.63;;
45909;SDS011;31622;55.416;37.840;2023-11-18T04:50:50;4.20;;;1.95;;
45909;SDS011;31622;55.416;37.840;2023-11-18T04:53:16;2.92;;;1.98;;
45909;SDS011;31622;55.416;37.840;2023-11-18T04:55:42;2.88;;;1.60;;
45909;SDS011;31622;55.416;37.840;2023-11-18T04:58:08;2.97;;;2.08;;
45909;SDS011;31622;55.416;37.840;2023-11-18T05:00:37;3.22;;;2.05;;
45909;SDS011;31622;55.416;37.840;2023-11-18T05:03:04;3.70;;;2.00;;
45909;SDS011;31622;55.416;37.840;2023-11-18T05:05:30;3.63;;;2.00;;
45909;SDS011;31622;55.416;37.840;2023-11-18T05:07:57;3.90;;;1.80;;
45909;SDS011;31622;55.416;37.840;2023-11-18T05:10:23;2.97;;;1.88;;
45909;SDS011;31622;55.416;37.840;2023-11-18T05:12:49;2.97;;;2.00;;
45909;SDS011;31622;55.416;37.840;2023-11-18T05:15:21;3.05;;;2.00;;
45909;SDS011;31622;55.416;37.840;2023-11-18T05:17:53;2.88;;;1.92;;
45909;SDS011;31622;55.416;37.840;2023-11-18T05:20:20;3.70;;;1.83;;
45909;SDS011;31622;55.416;37.840;2023-11-18T05:22:46;4.05;;;1.77;;
45909;SDS011;31622;55.416;37.840;2023-11-18T05:25:12;2.75;;;1.85;;
45909;SDS011;31622;55.416;37.840;2023-11-18T05:27:38;3.50;;;1.98;;
45909;SDS011;31622;55.416;37.840;2023-11-18T05:30:07;4.40;;;2.08;;
45909;SDS011;31622;55.416;37.840;2023-11-18T05:32:34;3.08;;;2.00;;
45909;SDS011;31622;55.416;37.840;2023-11-18T05:35:00;4.65;;;2.38;;
45909;SDS011;31622;55.416;37.840;2023-11-18T05:37:27;7.40;;;2.97;;
45909;SDS011;31622;55.416;37.840;2023-11-18T05:39:54;7.00;;;2.97;;
45909;SDS011;31622;55.416;37.840;2023-11-18T05:42:32;5.85;;;2.85;;
45909;SDS011;31622;55.416;37.840;2023-11-18T05:45:05;5.07;;;2.90;;
45909;SDS011;31622;55.416;37.840;2023-11-18T05:47:32;4.85;;;2.83;;
45909;SDS011;31622;55.416;37.840;2023-11-18T05:50:00;5.15;;;2.53;;
45909;SDS011;31622;55.416;37.840;2023-11-18T05:52:25;9.50;;;2.95;;
45909;SDS011;31622;55.416;37.840;2023-11-18T05:54:52;5.35;;;2.80;;
45909;SDS011;31622;55.416;37.840;2023-11-18T05:57:18;5.18;;;2.85;;
45909;SDS011;31622;55.416;37.840;2023-11-18T05:59:44;4.93;;;2.40;;
45909;SDS011;31622;55.416;37.840;2023-11-18T06:02:13;4.70;;;2.40;;
45909;SDS011;31622;55.416;37.840;2023-11-18T06:04:46;6.57;;;2.72;;
45909;SDS011;31622;55.416;37.840;2023-11-18T06:07:12;6.25;;;2.22;;
45909;SDS011;31622;55.416;37.840;2023-11-18T06:09:39;4.90;;;2.30;;
45909;SDS011;31622;55.416;37.840;2023-11-18T06:12:08;9.00;;;2.80;;
45909;SDS011;31622;55.416;37.840;2023-11-18T06:14:37;7.35;;;3.08;;
45909;SDS011;31622;55.416;37.840;2023-11-18T06:17:03;7.85;;;3.40;;
45909;SDS011;31622;55.416;37.840;2023-11-18T06:19:29;9.70;;;3.08;;
45909;SDS011;31622;55.416;37.840;2023-11-18T06:21:55;7.28;;;2.88;;
45909;SDS011;31622;55.416;37.840;2023-11-18T06:24:21;9.82;;;3.25;;
45909;SDS011;31622;55.416;37.840;2023-11-18T06:26:47;8.95;;;3.58;;
45909;SDS011;31622;55.416;37.840;2023-11-18T06:29:14;7.63;;;3.10;;
45909;SDS011;31622;55.416;37.840;2023-11-18T06:31:40;9.20;;;3.08;;
45909;SDS011;31622;55.416;37.840;2023-11-18T06:34:07;12.88;;;3.22;;
45909;SDS011;31622;55.416;37.840;2023-11-18T06:36:33;7.95;;;3.38;;
45909;SDS011;31622;55.416;37.840;2023-11-18T06:38:59;7.35;;;3.53;;
45909;SDS011;31622;55.416;37.840;2023-11-18T06:41:25;9.48;;;3.60;;
45909;SDS011;31622;55.416;37.840;2023-11-18T06:43:58;10.52;;;3.42;;
45909;SDS011;31622;55.416;37.840;2023-11-18T06:46:27;8.85;;;3.42;;
45909;SDS011;31622;55.416;37.840;2023-11-18T06:48:57;8.43;;;3.55;;
45909;SDS011;31622;55.416;37.840;2023-11-18T06:51:23;10.88;;;3.65;;
45909;SDS011;31622;55.416;37.840;2023-11-18T06:53:50;6.65;;;3.67;;
45909;SDS011;31622;55.416;37.840;2023-11-18T06:56:16;18.67;;;4.40;;
45909;SDS011;31622;55.416;37.840;2023-11-18T06:58:42;8.45;;;3.97;;
45909;SDS011;31622;55.416;37.840;2023-11-18T07:01:11;8.27;;;3.83;;
45909;SDS011;31622;55.416;37.840;2023-11-18T07:03:39;13.63;;;3.88;;
45909;SDS011;31622;55.416;37.840;2023-11-18T07:06:06;9.73;;;3.83;;
45909;SDS011;31622;55.416;37.840;2023-11-18T07:08:32;10.10;;;4.32;;
45909;SDS011;31622;55.416;37.840;2023-11-18T07:11:00;8.95;;;4.10;;
45909;SDS011;31622;55.416;37.840;2023-11-18T07:13:27;10.55;;;4.00;;
45909;SDS011;31622;55.416;37.840;2023-11-18T07:15:53;8.07;;;4.57;;
45909;SDS011;31622;55.416;37.840;2023-11-18T07:18:21;8.30;;;3.90;;
45909;SDS011;31622;55.416;37.840;2023-11-18T07:20:48;9.45;;;4.45;;
45909;SDS011;31622;55.416;37.840;2023-11-18T07:23:16;7.05;;;4.30;;
45909;SDS011;31622;55.416;37.840;2023-11-18T07:25:43;9.90;;;4.55;;
45909;SDS011;31622;55.416;37.840;2023-11-18T07:28:10;8.43;;;4.22;;
45909;SDS011;31622;55.416;37.840;2023-11-18T07:30:36;10.07;;;4.03;;
45909;SDS011;31622;55.416;37.840;2023-11-18T07:33:03;9.40;;;4.03;;
45909;SDS011;31622;55.416;37.840;2023-11-18T07:35:29;11.00;;;3.88;;
45909;SDS011;31622;55.416;37.840;2023-11-18T07:37:55;6.53;;;3.75;;
45909;SDS011;31622;55.416;37.840;2023-11-18T07:40:23;10.60;;;3.70;;
45909;SDS011;31622;55.416;37.840;2023-11-18T07:42:54;15.00;;;4.05;;
45909;SDS011;31622;55.416;37.840;2023-11-18T07:45:21;24.15;;;5.45;;
45909;SDS011;31622;55.416;37.840;2023-11-18T07:47:51;16.98;;;4.47;;
45909;SDS011;31622;55.416;37.840;2023-11-18T07:50:17;18.58;;;4.47;;
45909;SDS011;31622;55.416;37.840;2023-11-18T07:52:45;10.95;;;3.70;;
45909;SDS011;31622;55.416;37.840;2023-11-18T07:55:13;12.88;;;3.95;;
45909;SDS011;31622;55.416;37.840;2023-11-18T07:57:39;13.75;;;4.05;;
45909;SDS011;31622;55.416;37.840;2023-11-18T08:00:06;12.32;;;3.70;;
45909;SDS011;31622;55.416;37.840;2023-11-18T08:02:43;10.38;;;3.28;;
45909;SDS011;31622;55.416;37.840;2023-11-18T08:05:10;15.48;;;4.70;;
45909;SDS011;31622;55.416;37.840;2023-11-18T08:07:43;13.00;;;3.63;;
45909;SDS011;31622;55.416;37.840;2023-11-18T08:10:11;8.20;;;3.10;;
45909;SDS011;31622;55.416;37.840;2023-11-18T08:12:38;11.13;;;3.60;;
45909;SDS011;31622;55.416;37.840;2023-11-18T08:15:05;6.97;;;3.15;;
45909;SDS011;31622;55.416;37.840;2023-11-18T08:17:35;8.93;;;3.30;;
45909;SDS011;31622;55.416;37.840;2023-11-18T08:20:01;8.27;;;3.60;;
45909;SDS011;31622;55.416;37.840;2023-11-18T08:22:32;8.45;;;2.80;;
45909;SDS011;31622;55.416;37.840;2023-11-18T08:24:58;5.13;;;2.63;;
45909;SDS011;31622;55.416;37.840;2023-11-18T08:27:24;8.50;;;2.90;;
45909;SDS011;31622;55.416;37.840;2023-11-18T08:29:50;5.93;;;2.60;;
45909;SDS011;31622;55.416;37.840;2023-11-18T08:32:16;7.60;;;2.78;;
45909;SDS011;31622;55.416;37.840;2023-11-18T08:34:42;5.22;;;2.40;;
45909;SDS011;31622;55.416;37.840;2023-11-18T08:37:08;4.28;;;2.22;;
45909;SDS011;31622;55.416;37.840;2023-11-18T08:39:34;5.22;;;2.55;;
45909;SDS011;31622;55.416;37.840;2023-11-18T08:42:00;7.03;;;2.83;;
45909;SDS011;31622;55.416;37.840;2023-11-18T08:44:27;5.38;;;2.35;;
45909;SDS011;31622;55.416;37.840;2023-11-18T08:46:53;4.30;;;2.08;;
45909;SDS011;31622;55.416;37.840;2023-11-18T08:49:19;6.53;;;2.28;;
45909;SDS011;31622;55.416;37.840;2023-11-18T08:51:47;6.93;;;2.47;;
45909;SDS011;31622;55.416;37.840;2023-11-18T08:54:21;5.63;;;2.50;;
45909;SDS011;31622;55.416;37.840;2023-11-18T08:56:48;6.07;;;2.30;;
45909;SDS011;31622;55.416;37.840;2023-11-18T08:59:17;3.92;;;2.20;;
45909;SDS011;31622;55.416;37.840;2023-11-18T09:01:50;6.00;;;2.22;;
45909;SDS011;31622;55.416;37.840;2023-11-18T09:04:23;3.95;;;1.85;;
45909;SDS011;31622;55.416;37.840;2023-11-18T09:06:53;4.40;;;1.90;;
45909;SDS011;31622;55.416;37.840;2023-11-18T09:09:20;5.38;;;1.83;;
45909;SDS011;31622;55.416;37.840;2023-11-18T09:11:53;3.10;;;1.92;;
45909;SDS011;31622;55.416;37.840;2023-11-18T09:14:22;3.45;;;1.73;;
45909;SDS011;31622;55.416;37.840;2023-11-18T09:16:52;4.60;;;1.92;;
45909;SDS011;31622;55.416;37.840;2023-11-18T09:19:21;4.72;;;1.77;;
45909;SDS011;31622;55.416;37.840;2023-11-18T09:21:47;4.32;;;1.95;;
45909;SDS011;31622;55.416;37.840;2023-11-18T09:24:14;2.53;;;1.58;;
45909;SDS011;31622;55.416;37.840;2023-11-18T09:26:46;3.00;;;1.58;;
45909;SDS011;31622;55.416;37.840;2023-11-18T09:29:20;4.22;;;1.70;;
45909;SDS011;31622;55.416;37.840;2023-11-18T09:31:49;4.45;;;1.95;;
45909;SDS011;31622;55.416;37.840;2023-11-18T09:34:17;3.65;;;1.90;;
45909;SDS011;31622;55.416;37.840;2023-11-18T09:36:52;3.45;;;1.58;;
45909;SDS011;31622;55.416;37.840;2023-11-18T09:39:19;4.35;;;1.77;;
45909;SDS011;31622;55.416;37.840;2023-11-18T09:42:03;2.95;;;1.65;;
45909;SDS011;31622;55.416;37.840;2023-11-18T09:44:34;3.92;;;1.70;;
45909;SDS011;31622;55.416;37.840;2023-11-18T09:47:03;3.50;;;1.55;;
45909;SDS011;31622;55.416;37.840;2023-11-18T09:49:37;5.03;;;1.73;;
45909;SDS011;31622;55.416;37.840;2023-11-18T09:52:06;2.75;;;1.65;;
45909;SDS011;31622;55.416;37.840;2023-11-18T09:57:39;3.60;;;1.60;;
45909;SDS011;31622;55.416;37.840;2023-11-18T10:00:07;2.97;;;1.55;;
45909;SDS011;31622;55.416;37.840;2023-11-18T10:02:48;3.47;;;1.85;;
45909;SDS011;31622;55.416;37.840;2023-11-18T10:05:15;2.60;;;1.45;;
45909;SDS011;31622;55.416;37.840;2023-11-18T10:07:49;4.75;;;1.80;;
45909;SDS011;31622;55.416;37.840;2023-11-18T10:10:15;3.50;;;1.70;;
45909;SDS011;31622;55.416;37.840;2023-11-18T10:15:20;3.30;;;1.65;;
45909;SDS011;31622;55.416;37.840;2023-11-18T10:17:50;3.33;;;1.65;;
45909;SDS011;31622;55.416;37.840;2023-11-18T10:23:26;3.65;;;2.00;;
45909;SDS011;31622;55.416;37.840;2023-11-18T10:25:53;2.60;;;1.50;;
45909;SDS011;31622;55.416;37.840;2023-11-18T10:28:25;2.85;;;1.70;;
45909;SDS011;31622;55.416;37.840;2023-11-18T10:31:02;4.25;;;1.70;;
45909;SDS011;31622;55.416;37.840;2023-11-18T10:33:33;3.40;;;1.95;;
45909;SDS011;31622;55.416;37.840;2023-11-18T10:38:33;3.83;;;1.80;;
45909;SDS011;31622;55.416;37.840;2023-11-18T10:41:08;3.75;;;1.65;;
45909;SDS011;31622;55.416;37.840;2023-11-18T10:43:35;4.60;;;1.90;;
45909;SDS011;31622;55.416;37.840;2023-11-18T10:46:08;3.50;;;1.85;;
45909;SDS011;31622;55.416;37.840;2023-11-18T10:48:45;2.72;;;1.50;;
45909;SDS011;31622;55.416;37.840;2023-11-18T10:51:13;3.45;;;1.70;;
45909;SDS011;31622;55.416;37.840;2023-11-18T10:53:44;3.17;;;1.60;;
45909;SDS011;31622;55.416;37.840;2023-11-18T10:56:22;2.22;;;1.40;;
45909;SDS011;31622;55.416;37.840;2023-11-18T11:01:33;2.90;;;1.70;;
45909;SDS011;31622;55.416;37.840;2023-11-18T11:04:03;2.75;;;1.42;;
45909;SDS011;31622;55.416;37.840;2023-11-18T11:06:29;2.40;;;1.30;;
45909;SDS011;31622;55.416;37.840;2023-11-18T11:08:56;3.30;;;1.70;;
45909;SDS011;31622;55.416;37.840;2023-11-18T11:11:27;2.80;;;1.50;;
45909;SDS011;31622;55.416;37.840;2023-11-18T11:14:02;4.28;;;1.30;;
45909;SDS011;31622;55.416;37.840;2023-11-18T11:16:39;2.58;;;1.35;;
45909;SDS011;31622;55.416;37.840;2023-11-18T11:19:11;4.65;;;1.50;;
45909;SDS011;31622;55.416;37.840;2023-11-18T11:21:50;3.03;;;1.30;;
45909;SDS011;31622;55.416;37.840;2023-11-18T11:24:28;3.08;;;1.42;;
45909;SDS011;31622;55.416;37.840;2023-11-18T11:27:22;2.83;;;1.50;;
45909;SDS011;31622;55.416;37.840;2023-11-18T11:30:21;3.50;;;1.30;;
45909;SDS011;31622;55.416;37.840;2023-11-18T11:32:50;3.60;;;1.30;;
45909;SDS011;31622;55.416;37.840;2023-11-18T11:35:23;3.83;;;1.33;;
45909;SDS011;31622;55.416;37.840;2023-11-18T11:37:50;4.35;;;1.63;;
45909;SDS011;31622;55.416;37.840;2023-11-18T11:40:18;7.93;;;2.45;;
45909;SDS011;31622;55.416;37.840;2023-11-18T11:42:50;19.38;;;5.05;;
45909;SDS011;31622;55.416;37.840;2023-11-18T11:45:22;29.13;;;9.52;;
45909;SDS011;31622;55.416;37.840;2023-11-18T11:47:54;36.37;;;11.60;;
45909;SDS011;31622;55.416;37.840;2023-11-18T11:50:43;39.75;;;12.77;;
45909;SDS011;31622;55.416;37.840;2023-11-18T11:53:32;44.43;;;14.23;;
45909;SDS011;31622;55.416;37.840;2023-11-18T11:56:01;46.97;;;14.00;;
45909;SDS011;31622;55.416;37.840;2023-11-18T11:58:33;48.80;;;15.73;;
45909;SDS011;31622;55.416;37.840;2023-11-18T12:01:02;54.72;;;15.90;;
45909;SDS011;31622;55.416;37.840;2023-11-18T12:04:03;47.45;;;15.40;;
45909;SDS011;31622;55.416;37.840;2023-11-18T12:09:08;46.40;;;14.65;;
45909;SDS011;31622;55.416;37.840;2023-11-18T12:11:34;44.15;;;13.68;;
45909;SDS011;31622;55.416;37.840;2023-11-18T12:14:05;37.75;;;12.57;;
45909;SDS011;31622;55.416;37.840;2023-11-18T12:19:28;37.97;;;12.60;;
45909;SDS011;31622;55.416;37.840;2023-11-18T12:22:02;31.70;;;11.02;;
45909;SDS011;31622;55.416;37.840;2023-11-18T12:24:38;32.47;;;11.32;;
45909;SDS011;31622;55.416;37.840;2023-11-18T12:27:05;26.13;;;10.02;;
45909;SDS011;31622;55.416;37.840;2023-11-18T12:29:43;36.85;;;10.63;;
45909;SDS011;31622;55.416;37.840;2023-11-18T12:32:09;31.77;;;10.95;;
45909;SDS011;31622;55.416;37.840;2023-11-18T12:34:54;34.35;;;12.13;;
45909;SDS011;31622;55.416;37.840;2023-11-18T12:40:23;28.15;;;10.68;;
45909;SDS011;31622;55.416;37.840;2023-11-18T12:48:20;26.38;;;9.98;;
45909;SDS011;31622;55.416;37.840;2023-11-18T12:50:55;29.38;;;10.38;;
45909;SDS011;31622;55.416;37.840;2023-11-18T12:53:21;23.23;;;10.18;;
45909;SDS011;31622;55.416;37.840;2023-11-18T12:55:49;24.10;;;9.93;;
45909;SDS011;31622;55.416;37.840;2023-11-18T12:58:15;22.08;;;8.80;;
45909;SDS011;31622;55.416;37.840;2023-11-18T13:00:43;20.23;;;8.23;;
45909;SDS011;31622;55.416;37.840;2023-11-18T13:03:10;21.30;;;8.32;;
45909;SDS011;31622;55.416;37.840;2023-11-18T13:05:37;18.13;;;7.82;;
45909;SDS011;31622;55.416;37.840;2023-11-18T13:08:03;26.90;;;8.75;;
45909;SDS011;31622;55.416;37.840;2023-11-18T13:10:29;20.73;;;7.75;;
45909;SDS011;31622;55.416;37.840;2023-11-18T13:12:56;18.33;;;7.65;;
45909;SDS011;31622;55.416;37.840;2023-11-18T13:15:24;17.13;;;7.72;;
45909;SDS011;31622;55.416;37.840;2023-11-18T13:18:00;17.83;;;7.43;;
45909;SDS011;31622;55.416;37.840;2023-11-18T13:20:28;17.40;;;7.88;;
45909;SDS011;31622;55.416;37.840;2023-11-18T13:22:54;14.88;;;6.93;;
45909;SDS011;31622;55.416;37.840;2023-11-18T13:25:24;15.02;;;7.45;;
45909;SDS011;31622;55.416;37.840;2023-11-18T13:27:50;16.88;;;7.78;;
45909;SDS011;31622;55.416;37.840;2023-11-18T13:30:16;16.33;;;7.10;;
45909;SDS011;31622;55.416;37.840;2023-11-18T13:32:43;16.73;;;6.95;;
45909;SDS011;31622;55.416;37.840;2023-11-18T13:35:12;14.43;;;7.05;;
45909;SDS011;31622;55.416;37.840;2023-11-18T13:37:46;14.50;;;6.63;;
45909;SDS011;31622;55.416;37.840;2023-11-18T13:40:13;13.25;;;6.57;;
45909;SDS011;31622;55.416;37.840;2023-11-18T13:42:39;13.25;;;6.18;;
45909;SDS011;31622;55.416;37.840;2023-11-18T13:45:11;12.02;;;5.80;;
45909;SDS011;31622;55.416;37.840;2023-11-18T13:47:41;12.10;;;5.80;;
45909;SDS011;31622;55.416;37.840;2023-11-18T13:50:17;13.48;;;6.57;;
45909;SDS011;31622;55.416;37.840;2023-11-18T13:52:45;12.88;;;5.53;;
45909;SDS011;31622;55.416;37.840;2023-11-18T13:55:12;12.35;;;5.53;;
45909;SDS011;31622;55.416;37.840;2023-11-18T13:57:43;11.88;;;5.07;;
45909;SDS011;31622;55.416;37.840;2023-11-18T14:00:09;9.18;;;5.05;;
45909;SDS011;31622;55.416;37.840;2023-11-18T14:02:40;10.02;;;4.90;;
45909;SDS011;31622;55.416;37.840;2023-11-18T14:05:14;14.70;;;6.22;;
45909;SDS011;31622;55.416;37.840;2023-11-18T14:07:42;9.63;;;4.63;;
45909;SDS011;31622;55.416;37.840;2023-11-18T14:10:08;8.90;;;4.43;;
45909;SDS011;31622;55.416;37.840;2023-11-18T14:12:57;8.40;;;4.43;;
45909;SDS011;31622;55.416;37.840;2023-11-18T14:15:28;8.75;;;4.18;;
45909;SDS011;31622;55.416;37.840;2023-11-18T14:17:55;8.30;;;4.40;;
45909;SDS011;31622;55.416;37.840;2023-11-18T14:20:21;7.65;;;4.07;;
45909;SDS011;31622;55.416;37.840;2023-11-18T14:22:48;7.57;;;4.60;;
45909;SDS011;31622;55.416;37.840;2023-11-18T14:25:14;8.65;;;4.57;;
45909;SDS011;31622;55.416;37.840;2023-11-18T14:27:40;8.65;;;4.85;;
45909;SDS011;31622;55.416;37.840;2023-11-18T14:30:06;7.55;;;4.82;;
45909;SDS011;31622;55.416;37.840;2023-11-18T14:32:34;10.00;;;4.63;;
45909;SDS011;31622;55.416;37.840;2023-11-18T14:35:00;9.23;;;4.32;;
45909;SDS011;31622;55.416;37.840;2023-11-18T14:37:26;9.05;;;4.75;;
45909;SDS011;31622;55.416;37.840;2023-11-18T14:39:52;8.95;;;4.70;;
45909;SDS011;31622;55.416;37.840;2023-11-18T14:42:19;8.52;;;4.82;;
45909;SDS011;31622;55.416;37.840;2023-11-18T14:44:46;8.38;;;4.35;;
45909;SDS011;31622;55.416;37.840;2023-11-18T14:47:12;9.00;;;4.70;;
45909;SDS011;31622;55.416;37.840;2023-11-18T14:49:38;7.30;;;4.40;;
45909;SDS011;31622;55.416;37.840;2023-11-18T14:52:04;6.60;;;3.90;;
45909;SDS011;31622;55.416;37.840;2023-11-18T14:54:30;8.32;;;4.55;;
45909;SDS011;31622;55.416;37.840;2023-11-18T14:57:01;8.80;;;4.18;;
45909;SDS011;31622;55.416;37.840;2023-11-18T14:59:28;8.05;;;3.72;;
45909;SDS011;31622;55.416;37.840;2023-11-18T15:01:54;8.93;;;4.65;;
45909;SDS011;31622;55.416;37.840;2023-11-18T15:04:23;7.20;;;4.30;;
45909;SDS011;31622;55.416;37.840;2023-11-18T15:06:49;7.68;;;4.50;;
45909;SDS011;31622;55.416;37.840;2023-11-18T15:09:18;6.57;;;4.13;;